Time;durP1;ratioP1;P1;durP2;ratioP2;P2;SDS_P1;SDS_P2;PMS_P1;PMS_P2;Temp;Humidity;BMP_temperature;BMP_pressure;BME280_temperature;BME280_humidity;BME280_pressure;Samples;Min_cycle;Max_cycle;Signal;HPM_P1;HPM_P2
2022/10/22 00:00:14;;;;;;;7.15;2.20;;;;;;;12.14;100.00;95660.47;1022825;28;20432;-74
2022/10/22 00:00:45;;;;;;;3.20;2.10;;;;;;;12.09;100.00;95651.81;1027190;28;20019;-74
2022/10/22 00:01:15;;;;;;;6.07;2.17;;;;;;;12.13;100.00;95663.34;1027070;28;20023;-75
2022/10/22 00:01:46;;;;;;;2.55;1.95;;;;;;;12.12;100.00;95657.31;1030871;28;20048;-75
2022/10/22 00:02:18;;;;;;;7.25;2.28;;;;;;;12.11;100.00;95652.34;1026164;28;20030;-74
2022/10/22 00:02:49;;;;;;;6.28;2.05;;;;;;;12.13;100.00;95655.47;1034890;28;20026;-73
2022/10/22 00:03:19;;;;;;;6.80;2.95;;;;;;;12.13;100.00;95652.84;1034677;28;20087;-74
2022/10/22 00:03:50;;;;;;;2.95;1.95;;;;;;;12.12;100.00;95654.69;1026979;28;20018;-74
2022/10/22 00:04:20;;;;;;;3.67;2.20;;;;;;;12.14;100.00;95660.47;1027225;28;20026;-74
2022/10/22 00:04:51;;;;;;;3.83;2.08;;;;;;;12.04;100.00;95650.03;1026769;28;20050;-74
2022/10/22 00:05:24;;;;;;;3.47;2.40;;;;;;;12.13;100.00;95658.09;1027349;28;20060;-75
2022/10/22 00:05:54;;;;;;;4.10;2.08;;;;;;;12.13;100.00;95658.09;1026967;28;20488;-73
2022/10/22 00:06:25;;;;;;;4.13;1.70;;;;;;;12.13;100.00;95660.72;1027800;28;20512;-74
2022/10/22 00:06:55;;;;;;;4.07;2.42;;;;;;;12.16;100.00;95657.56;1034875;28;20399;-72
2022/10/22 00:07:26;;;;;;;4.85;2.17;;;;;;;12.15;100.00;95658.63;1026987;28;20492;-72
2022/10/22 00:07:56;;;;;;;4.47;2.33;;;;;;;12.17;100.00;95664.38;1027046;28;20039;-74
2022/10/22 00:08:27;;;;;;;4.95;2.28;;;;;;;12.16;100.00;95663.59;1030625;28;20026;-74
2022/10/22 00:08:57;;;;;;;3.72;2.13;;;;;;;12.14;100.00;95657.84;1027085;28;20026;-76
2022/10/22 00:09:28;;;;;;;3.72;2.13;;;;;;;12.15;100.00;95667.28;1034926;28;20021;-75
2022/10/22 00:09:58;;;;;;;6.00;1.90;;;;;;;12.11;100.00;95654.97;1034836;28;20037;-75
2022/10/22 00:10:28;;;;;;;5.22;2.05;;;;;;;12.13;100.00;95653.63;1030748;28;20369;-73
2022/10/22 00:11:06;;;;;;;4.20;2.20;;;;;;;12.17;100.00;95664.38;1022846;29;20358;-74
2022/10/22 00:11:36;;;;;;;4.07;1.90;;;;;;;12.16;100.00;95657.56;1022796;29;20019;-73
2022/10/22 00:12:06;;;;;;;2.67;2.22;;;;;;;12.15;100.00;95661.25;1023815;28;20031;-73
2022/10/22 00:12:37;;;;;;;3.45;2.20;;;;;;;12.10;100.00;95654.16;1028955;28;20019;-74
2022/10/22 00:13:08;;;;;;;6.18;2.20;;;;;;;12.07;100.00;95653.94;1038771;28;20020;-74
2022/10/22 00:13:39;;;;;;;4.63;2.17;;;;;;;12.15;100.00;95661.25;1034976;28;20064;-74
2022/10/22 00:14:09;;;;;;;2.80;1.92;;;;;;;12.14;100.00;95663.09;1034872;28;20076;-74
2022/10/22 00:14:40;;;;;;;3.95;2.22;;;;;;;12.13;100.00;95671.25;1026642;28;20027;-74
2022/10/22 00:15:10;;;;;;;4.07;2.17;;;;;;;12.12;100.00;95672.31;1022651;28;20115;-73
2022/10/22 00:15:41;;;;;;;5.65;2.85;;;;;;;12.14;100.00;95676.25;1026919;28;20096;-74
2022/10/22 00:16:11;;;;;;;4.57;2.58;;;;;;;12.07;100.00;95670.50;1030930;28;20140;-74
2022/10/22 00:16:42;;;;;;;5.63;2.38;;;;;;;11.97;100.00;95649.53;1030768;28;20709;-74
2022/10/22 00:17:12;;;;;;;5.55;2.28;;;;;;;12.09;100.00;95663.13;1026682;28;20023;-73
2022/10/22 00:17:43;;;;;;;5.60;2.60;;;;;;;12.14;100.00;95670.19;1030813;28;20081;-74
2022/10/22 00:18:13;;;;;;;9.70;2.97;;;;;;;12.13;100.00;95679.13;1030965;28;20093;-75
2022/10/22 00:18:44;;;;;;;5.20;2.72;;;;;;;12.14;100.00;95678.06;1034654;28;20018;-74
2022/10/22 00:19:14;;;;;;;6.80;3.10;;;;;;;12.12;100.00;95670.47;1022522;28;20062;-73
2022/10/22 00:19:45;;;;;;;5.18;2.45;;;;;;;12.10;100.00;95669.16;1030579;28;20041;-74
2022/10/22 00:20:15;;;;;;;6.35;2.67;;;;;;;12.11;100.00;95674.16;1031316;28;20054;-73
2022/10/22 00:20:46;;;;;;;6.93;3.08;;;;;;;12.12;100.00;95680.22;1030595;28;20061;-73
2022/10/22 00:21:16;;;;;;;6.38;2.53;;;;;;;12.12;100.00;95674.94;1030479;28;20549;-74
2022/10/22 00:21:47;;;;;;;5.05;2.60;;;;;;;12.05;100.00;95669.22;1030512;28;20033;-73
2022/10/22 00:22:17;;;;;;;5.90;2.85;;;;;;;12.11;100.00;95682.06;1030185;28;20034;-74
2022/10/22 00:22:48;;;;;;;4.05;2.85;;;;;;;12.11;100.00;95681.28;1034768;28;20018;-73
2022/10/22 00:23:18;;;;;;;9.73;2.47;;;;;;;12.12;100.00;95688.88;1026453;28;20031;-74
2022/10/22 00:23:48;;;;;;;4.82;2.92;;;;;;;12.13;100.00;95684.41;1023056;28;20031;-73
2022/10/22 00:24:19;;;;;;;5.47;2.72;;;;;;;12.13;100.00;95687.03;1030795;28;20026;-72
2022/10/22 00:24:49;;;;;;;7.28;2.40;;;;;;;12.06;100.00;95673.41;1030962;28;20029;-73
2022/10/22 00:25:20;;;;;;;4.53;2.63;;;;;;;12.11;100.00;95682.06;1034359;28;20080;-73
2022/10/22 00:25:52;;;;;;;3.47;2.28;;;;;;;12.08;100.00;95681.81;1030990;28;20034;-74
2022/10/22 00:26:22;;;;;;;7.45;3.10;;;;;;;12.14;100.00;95691.22;1026838;28;20035;-74
2022/10/22 00:26:53;;;;;;;3.97;2.90;;;;;;;12.12;100.00;95693.34;1022528;29;20218;-72
2022/10/22 00:27:23;;;;;;;4.07;2.53;;;;;;;12.10;100.00;95690.97;1019078;29;20060;-73
2022/10/22 00:27:53;;;;;;;6.35;2.92;;;;;;;12.13;100.00;95700.97;1023109;28;20101;-73
2022/10/22 00:28:24;;;;;;;5.65;2.70;;;;;;;12.12;100.00;95693.34;1030924;28;20030;-74
2022/10/22 00:28:54;;;;;;;4.93;2.45;;;;;;;12.13;100.00;95690.44;1035025;28;20076;-74
2022/10/22 00:29:25;;;;;;;3.83;2.60;;;;;;;12.14;100.00;95699.13;1034717;28;20034;-73
2022/10/22 00:29:55;;;;;;;4.43;2.80;;;;;;;12.14;100.00;95701.75;1030954;28;20206;-74
2022/10/22 00:30:26;;;;;;;7.78;3.05;;;;;;;12.13;100.00;95694.94;1037853;28;20022;-74
2022/10/22 00:30:57;;;;;;;6.00;2.92;;;;;;;12.11;100.00;95702.31;1034810;28;20060;-73
2022/10/22 00:31:27;;;;;;;6.82;3.13;;;;;;;12.12;100.00;95698.63;1034736;28;20026;-73
2022/10/22 00:31:58;;;;;;;8.98;2.75;;;;;;;12.12;100.00;95703.88;1034888;28;20022;-74
2022/10/22 00:32:28;;;;;;;5.53;2.40;;;;;;;12.11;100.00;95697.84;1032397;28;20030;-72
2022/10/22 00:32:59;;;;;;;6.18;2.60;;;;;;;12.10;100.00;95698.88;1035107;28;20021;-74
2022/10/22 00:33:29;;;;;;;4.93;2.65;;;;;;;12.11;100.00;95702.31;1038796;28;20087;-73
2022/10/22 00:34:00;;;;;;;5.20;3.05;;;;;;;12.06;100.00;95694.44;1038734;28;20087;-74
2022/10/22 00:34:30;;;;;;;5.32;2.75;;;;;;;12.13;100.00;95702.81;1022857;29;20035;-74
2022/10/22 00:35:00;;;;;;;7.15;2.60;;;;;;;12.09;100.00;95701.78;1022852;28;20074;-74
2022/10/22 00:35:31;;;;;;;4.13;2.60;;;;;;;12.08;100.00;95700.22;1022760;29;20058;-74
2022/10/22 00:36:02;;;;;;;4.78;2.88;;;;;;;12.12;100.00;95706.50;1022926;28;20011;-74
2022/10/22 00:36:32;;;;;;;6.70;2.80;;;;;;;12.11;100.00;95707.59;1034894;28;20025;-74
2022/10/22 00:37:03;;;;;;;6.63;2.60;;;;;;;12.05;100.00;95700.78;1030810;28;20109;-75
2022/10/22 00:37:33;;;;;;;4.53;2.80;;;;;;;12.12;100.00;95709.91;1032128;28;20472;-73
2022/10/22 00:38:04;;;;;;;7.20;2.05;;;;;;;12.09;100.00;95704.41;1026703;28;20023;-73
2022/10/22 00:38:34;;;;;;;5.22;2.28;;;;;;;12.13;100.00;95705.44;1022868;29;20501;-73
2022/10/22 00:39:04;;;;;;;5.03;2.30;;;;;;;12.11;100.00;95705.72;1030624;28;20034;-74
2022/10/22 00:39:35;;;;;;;4.95;2.53;;;;;;;12.07;100.00;95698.63;1030805;28;20026;-75
2022/10/22 00:40:06;;;;;;;8.43;2.67;;;;;;;12.08;100.00;95703.63;1030817;28;20019;-74
2022/10/22 00:40:36;;;;;;;3.60;2.70;;;;;;;12.12;100.00;95714.41;1025269;28;20121;-71
2022/10/22 00:41:10;;;;;;;5.32;2.20;;;;;;;12.13;100.00;95708.06;1022428;28;20027;-73
2022/10/22 00:41:44;;;;;;;4.65;2.75;;;;;;;12.12;100.00;95709.91;1026816;28;20019;-74
2022/10/22 00:42:22;;;;;;;3.40;2.42;;;;;;;12.08;100.00;95702.84;1023076;28;20062;-74
2022/10/22 00:42:53;;;;;;;3.60;2.45;;;;;;;12.12;100.00;95711.78;1022535;28;20007;-73
2022/10/22 00:43:23;;;;;;;3.20;2.40;;;;;;;12.06;100.00;95702.34;1022421;29;20489;-74
2022/10/22 00:43:59;;;;;;;4.93;2.60;;;;;;;12.07;100.00;95702.06;1026030;28;20023;-73
2022/10/22 00:45:07;;;;;;;3.58;2.30;;;;;;;12.11;100.00;95710.22;1038177;28;20552;-74
2022/10/22 00:45:37;;;;;;;5.03;2.72;;;;;;;12.10;100.00;95703.34;1043064;28;20013;-74
2022/10/22 00:46:08;;;;;;;4.32;2.72;;;;;;;12.10;100.00;95700.72;1037542;28;20021;-74
2022/10/22 00:46:38;;;;;;;5.10;2.40;;;;;;;12.09;100.00;95707.84;1034776;28;20371;-74
2022/10/22 00:47:09;;;;;;;5.78;2.45;;;;;;;12.06;100.00;95699.72;1030852;28;20531;-74
2022/10/22 00:47:57;;;;;;;4.75;2.78;;;;;;;12.05;100.00;95695.50;1031548;28;20082;-74
2022/10/22 00:48:28;;;;;;;4.72;2.05;;;;;;;12.08;100.00;95702.84;1030689;28;20030;-74
2022/10/22 00:49:00;;;;;;;5.88;2.33;;;;;;;12.07;100.00;95703.91;1029439;28;20345;-73
2022/10/22 00:49:31;;;;;;;5.07;2.53;;;;;;;12.07;100.00;95702.06;1026686;28;20026;-73
2022/10/22 00:50:02;;;;;;;4.38;2.63;;;;;;;12.10;100.00;95700.72;1030588;28;20010;-73
2022/10/22 00:50:40;;;;;;;5.10;2.10;;;;;;;11.92;100.00;95670.59;1026655;28;20811;-74
2022/10/22 00:51:11;;;;;;;8.27;2.72;;;;;;;12.08;100.00;95692.34;1030650;28;20010;-73
2022/10/22 00:51:41;;;;;;;7.32;2.53;;;;;;;12.05;100.00;95685.78;1026747;28;20027;-73
2022/10/22 00:52:12;;;;;;;6.70;2.33;;;;;;;12.04;100.00;95681.59;1026122;28;20676;-72
2022/10/22 00:52:42;;;;;;;3.60;2.38;;;;;;;12.07;100.00;95688.13;1022427;28;20027;-73
2022/10/22 00:53:18;;;;;;;6.88;2.78;;;;;;;12.03;100.00;95680.00;1018614;29;20027;-74
2022/10/22 00:53:52;;;;;;;3.65;2.50;;;;;;;12.07;100.00;95681.00;1026702;28;20098;-73
2022/10/22 00:54:22;;;;;;;3.05;2.20;;;;;;;12.07;100.00;95685.50;1030434;28;20451;-75
2022/10/22 00:54:53;;;;;;;5.00;2.45;;;;;;;12.08;100.00;95682.59;1030640;28;20034;-73
2022/10/22 00:55:25;;;;;;;5.60;2.60;;;;;;;12.07;100.00;95680.22;1022679;28;20075;-73
2022/10/22 00:55:55;;;;;;;6.03;2.40;;;;;;;12.03;100.00;95672.09;1026658;28;20054;-73
2022/10/22 00:56:25;;;;;;;3.45;2.10;;;;;;;12.06;100.00;95676.03;1030446;28;20018;-74
2022/10/22 00:56:56;;;;;;;6.53;3.40;;;;;;;12.09;100.00;95680.75;1034830;28;20025;-73
2022/10/22 00:57:26;;;;;;;9.15;2.30;;;;;;;12.03;100.00;95670.25;1034752;28;20680;-74
2022/10/22 00:57:57;;;;;;;3.83;2.38;;;;;;;12.10;100.00;95674.41;1026631;28;20015;-73
2022/10/22 00:58:30;;;;;;;8.77;2.50;;;;;;;12.07;100.00;95673.13;1022548;29;20023;-72
2022/10/22 00:59:00;;;;;;;4.57;2.92;;;;;;;12.09;100.00;95672.88;1026788;28;20019;-73
2022/10/22 00:59:31;;;;;;;7.70;3.20;;;;;;;12.07;100.00;95675.75;1026619;28;20740;-74
2022/10/22 01:00:01;;;;;;;5.28;2.42;;;;;;;12.02;100.00;95660.81;1034868;28;20058;-74
2022/10/22 01:00:35;;;;;;;2.83;1.75;;;;;;;12.05;100.00;95666.59;1026544;28;20038;-73
2022/10/22 01:01:05;;;;;;;5.88;2.50;;;;;;;12.08;100.00;95671.31;1034701;28;20837;-72
2022/10/22 01:01:35;;;;;;;7.75;3.08;;;;;;;12.02;100.00;95660.81;1030097;28;20091;-73
2022/10/22 01:02:06;;;;;;;4.85;2.58;;;;;;;12.11;100.00;95676.00;1030603;28;20026;-73
2022/10/22 01:02:36;;;;;;;3.72;2.15;;;;;;;12.00;100.00;95664.75;1029911;28;20026;-72
2022/10/22 01:03:07;;;;;;;3.22;2.10;;;;;;;12.05;100.00;95671.84;1028510;28;20108;-72
2022/10/22 01:03:37;;;;;;;4.53;2.03;;;;;;;12.03;100.00;95670.25;1026676;28;20022;-74
2022/10/22 01:04:08;;;;;;;3.53;2.20;;;;;;;12.07;100.00;95680.22;1030220;28;20034;-74
2022/10/22 01:04:39;;;;;;;4.95;2.80;;;;;;;11.95;100.00;95662.94;1034590;28;20081;-74
2022/10/22 01:05:09;;;;;;;7.25;2.17;;;;;;;12.08;100.00;95679.19;1034684;28;20026;-73
2022/10/22 01:06:02;;;;;;;5.10;2.38;;;;;;;12.08;100.00;95687.06;1022732;28;20035;-71
2022/10/22 01:06:32;;;;;;;3.30;2.05;;;;;;;12.07;100.00;95680.22;1023355;28;20043;-74
2022/10/22 01:07:03;;;;;;;6.38;2.53;;;;;;;12.04;100.00;95684.22;1026600;28;20022;-74
2022/10/22 01:07:36;;;;;;;3.22;2.17;;;;;;;12.06;100.00;95683.94;1030308;28;20027;-73
2022/10/22 01:08:08;;;;;;;4.63;2.30;;;;;;;12.04;100.00;95681.59;1026131;28;20015;-73
2022/10/22 01:08:55;;;;;;;5.65;2.55;;;;;;;12.05;100.00;95692.88;1026706;28;20022;-73
2022/10/22 01:10:08;;;;;;;3.92;2.65;;;;;;;12.05;100.00;95692.88;1022747;29;20590;-74
2022/10/22 01:10:41;;;;;;;4.30;2.25;;;;;;;12.04;100.00;95702.63;1022031;29;20263;-74
2022/10/22 01:11:22;;;;;;;4.32;2.13;;;;;;;11.97;100.00;95684.50;1024844;28;20102;-73
2022/10/22 01:12:41;;;;;;;5.75;3.15;;;;;;;12.01;100.00;95706.56;1030706;28;20022;-73
2022/10/22 01:13:30;;;;;;;7.07;2.58;;;;;;;12.00;100.00;95702.38;1021881;28;20155;-74
2022/10/22 01:14:09;;;;;;;4.00;2.63;;;;;;;11.97;100.00;95702.91;1022452;29;20555;-74
2022/10/22 01:14:45;;;;;;;6.35;2.60;;;;;;;11.98;100.00;95708.97;1016089;29;20078;-73
2022/10/22 01:15:21;;;;;;;7.10;2.55;;;;;;;12.00;100.00;95712.91;1008458;29;20481;-75
2022/10/22 01:16:03;;;;;;;4.60;2.53;;;;;;;11.99;100.00;95711.31;1012945;29;20021;-73
2022/10/22 01:16:42;;;;;;;6.68;2.38;;;;;;;11.98;100.00;95711.59;1020586;29;20031;-75
2022/10/22 01:17:29;;;;;;;3.88;2.13;;;;;;;11.96;100.00;95709.22;1028644;28;20038;-73
2022/10/22 01:18:11;;;;;;;11.00;3.42;;;;;;;11.96;100.00;95711.06;1022296;29;20015;-72
2022/10/22 01:18:48;;;;;;;7.53;2.45;;;;;;;11.96;100.00;95706.59;1010278;29;20104;-74
2022/10/22 01:19:31;;;;;;;4.22;2.72;;;;;;;11.87;100.00;95697.72;1024274;28;20571;-73
2022/10/22 01:20:29;;;;;;;5.95;3.10;;;;;;;11.96;100.00;95719.72;1029015;28;20017;-73
2022/10/22 01:21:10;;;;;;;5.25;2.47;;;;;;;11.96;100.00;95718.94;1030353;28;20528;-74
2022/10/22 01:21:45;;;;;;;4.35;2.40;;;;;;;11.97;100.00;95721.31;1027418;28;20093;-74
2022/10/22 01:22:30;;;;;;;7.65;2.90;;;;;;;11.94;100.00;95708.72;1026604;28;20541;-72
2022/10/22 01:23:37;;;;;;;5.00;2.67;;;;;;;11.95;100.00;95705.03;1029621;28;20562;-76
2022/10/22 01:24:58;;;;;;;6.35;2.53;;;;;;;11.93;100.00;95703.72;1038010;28;20466;-72
2022/10/22 01:25:44;;;;;;;4.43;2.53;;;;;;;11.87;100.00;95687.19;1026590;28;20622;-74
2022/10/22 01:26:28;;;;;;;8.07;2.70;;;;;;;11.92;100.00;95700.31;1026701;28;20094;-74
2022/10/22 01:27:14;;;;;;;5.53;2.35;;;;;;;11.91;100.00;95696.13;1022631;29;20637;-74
2022/10/22 01:28:12;;;;;;;7.15;2.88;;;;;;;11.91;100.00;95698.75;1018608;29;20027;-74
2022/10/22 01:28:54;;;;;;;4.22;2.70;;;;;;;11.92;100.00;95696.91;1016448;29;20047;-73
2022/10/22 01:29:48;;;;;;;5.03;3.30;;;;;;;11.93;100.00;95693.19;1019908;29;20030;-74
2022/10/22 01:30:19;;;;;;;4.10;2.38;;;;;;;11.93;100.00;95695.81;1019139;29;20837;-73
2022/10/22 01:30:50;;;;;;;6.18;2.42;;;;;;;11.92;100.00;95694.25;1018710;29;20047;-72
2022/10/22 01:31:20;;;;;;;5.25;2.75;;;;;;;11.93;100.00;95688.72;1024822;28;20408;-74
2022/10/22 01:31:53;;;;;;;4.10;2.65;;;;;;;11.95;100.00;95689.25;1031054;28;20069;-73
2022/10/22 01:32:24;;;;;;;6.97;3.30;;;;;;;11.92;100.00;95678.50;1026259;28;20080;-72
2022/10/22 01:32:58;;;;;;;5.82;2.60;;;;;;;11.92;100.00;95679.28;1026847;28;20111;-73
2022/10/22 01:33:28;;;;;;;9.85;4.45;;;;;;;11.95;100.00;95683.22;1030803;28;20018;-74
2022/10/22 01:33:59;;;;;;;7.80;3.45;;;;;;;11.88;100.00;95673.00;1026611;28;20015;-73
2022/10/22 01:34:29;;;;;;;4.60;2.75;;;;;;;11.92;100.00;95673.22;1035113;28;20026;-74
2022/10/22 01:35:01;;;;;;;7.25;3.33;;;;;;;11.95;100.00;95678.72;1019007;29;20024;-73
2022/10/22 01:35:34;;;;;;;5.07;2.92;;;;;;;11.93;100.00;95670.31;1035005;28;20018;-74
2022/10/22 01:36:05;;;;;;;6.97;2.63;;;;;;;11.97;100.00;95671.38;1026612;28;20453;-73
2022/10/22 01:36:35;;;;;;;7.88;2.95;;;;;;;11.97;100.00;95676.63;1018934;29;20163;-73
2022/10/22 01:37:06;;;;;;;4.93;2.40;;;;;;;11.96;100.00;95672.41;1015039;29;20382;-73
2022/10/22 01:37:43;;;;;;;7.70;2.75;;;;;;;11.97;100.00;95671.38;1020914;28;20401;-75
2022/10/22 01:38:16;;;;;;;5.88;2.80;;;;;;;11.98;100.00;95683.44;1022723;29;20019;-75
2022/10/22 01:38:46;;;;;;;5.60;2.85;;;;;;;11.98;100.00;95683.44;1018976;29;20262;-74
2022/10/22 01:39:17;;;;;;;5.53;2.45;;;;;;;11.98;100.00;95686.06;1026762;28;20018;-74
2022/10/22 01:39:47;;;;;;;5.82;2.55;;;;;;;11.98;100.00;95683.44;1026902;28;20102;-74
2022/10/22 01:40:17;;;;;;;5.72;2.42;;;;;;;11.99;100.00;95690.28;1022744;29;20144;-74
2022/10/22 01:40:48;;;;;;;4.95;2.72;;;;;;;11.94;100.00;95685.06;1026745;28;20015;-73
2022/10/22 01:41:18;;;;;;;3.85;2.22;;;;;;;12.02;100.00;95694.22;1026687;28;20452;-74
2022/10/22 01:41:49;;;;;;;3.95;2.45;;;;;;;11.99;100.00;95689.50;1019064;29;20091;-74
2022/10/22 01:42:19;;;;;;;3.65;2.00;;;;;;;12.00;100.00;95694.50;1022239;29;20023;-73
2022/10/22 01:42:56;;;;;;;3.72;2.05;;;;;;;12.03;100.00;95690.50;1029793;28;20073;-74
2022/10/22 01:43:26;;;;;;;7.15;2.30;;;;;;;12.03;100.00;95695.78;1038201;28;20071;-73
2022/10/22 01:43:57;;;;;;;9.18;2.60;;;;;;;11.99;100.00;95684.22;1031791;28;20899;-74
2022/10/22 01:44:32;;;;;;;7.10;2.42;;;;;;;12.06;100.00;95697.06;1031624;28;20372;-74
2022/10/22 01:45:10;;;;;;;5.10;2.45;;;;;;;12.01;100.00;95693.44;1026955;28;20772;-74
2022/10/22 01:45:43;;;;;;;9.88;2.65;;;;;;;12.04;100.00;95692.09;1026819;28;20026;-72
2022/10/22 01:46:13;;;;;;;5.03;2.25;;;;;;;12.08;100.00;95697.59;1029627;28;20085;-74
2022/10/22 01:46:44;;;;;;;5.70;2.45;;;;;;;12.02;100.00;95692.34;1034761;28;20014;-73
2022/10/22 01:47:39;;;;;;;5.30;2.55;;;;;;;12.08;100.00;95697.59;1034912;28;20014;-72
2022/10/22 01:48:15;;;;;;;6.63;2.10;;;;;;;12.08;100.00;95700.22;1026858;28;20097;-75
2022/10/22 01:49:11;;;;;;;6.72;2.95;;;;;;;12.10;100.00;95701.50;1030977;28;20154;-72
2022/10/22 01:49:55;;;;;;;4.88;2.63;;;;;;;12.09;100.00;95701.78;1030504;28;20352;-73
2022/10/22 01:50:41;;;;;;;3.75;2.30;;;;;;;12.08;100.00;95698.38;1026890;28;20015;-74
2022/10/22 01:51:23;;;;;;;4.70;2.63;;;;;;;12.10;100.00;95703.34;1028604;28;20250;-73
2022/10/22 01:52:19;;;;;;;5.43;2.45;;;;;;;12.11;100.00;95702.31;1030968;28;20124;-74
2022/10/22 01:53:16;;;;;;;4.75;2.40;;;;;;;12.09;100.00;95709.69;1033764;28;20014;-73
2022/10/22 01:53:55;;;;;;;3.88;2.30;;;;;;;12.11;100.00;95702.31;1033814;28;20251;-74
2022/10/22 01:54:51;;;;;;;9.20;2.85;;;;;;;12.10;100.00;95700.72;1038508;28;20032;-74
2022/10/22 01:55:47;;;;;;;2.40;1.70;;;;;;;12.11;100.00;95712.84;1034962;28;20156;-72
2022/10/22 01:56:48;;;;;;;9.43;2.70;;;;;;;12.09;100.00;95709.69;1034759;28;20482;-73
2022/10/22 01:57:29;;;;;;;5.28;2.38;;;;;;;12.08;100.00;95706.28;1034923;28;20650;-72
2022/10/22 01:58:05;;;;;;;4.47;2.50;;;;;;;12.10;100.00;95717.28;1025824;28;20026;-72
2022/10/22 01:58:42;;;;;;;7.05;2.10;;;;;;;12.12;100.00;95706.50;1022745;28;20850;-72
2022/10/22 01:59:33;;;;;;;5.78;2.35;;;;;;;12.14;100.00;95712.28;1025547;28;20030;-74
2022/10/22 02:00:08;;;;;;;4.65;2.55;;;;;;;12.11;100.00;95703.09;1030970;28;20417;-74
2022/10/22 02:00:39;;;;;;;3.75;2.55;;;;;;;12.11;100.00;95713.63;1034880;28;20113;-74
2022/10/22 02:01:39;;;;;;;4.60;2.13;;;;;;;12.09;100.00;95709.69;1030558;28;20026;-72
2022/10/22 02:02:27;;;;;;;4.32;1.98;;;;;;;12.09;100.00;95720.19;1031053;28;20734;-72
2022/10/22 02:03:16;;;;;;;4.60;2.55;;;;;;;12.07;100.00;95719.69;1031282;28;20045;-74
2022/10/22 02:03:59;;;;;;;7.65;2.30;;;;;;;12.12;100.00;95722.28;1030792;28;20313;-74
2022/10/22 02:04:33;;;;;;;3.95;2.38;;;;;;;12.10;100.00;95727.03;1022801;29;20297;-74
2022/10/22 02:05:09;;;;;;;3.95;2.65;;;;;;;12.12;100.00;95723.06;1030564;28;20014;-73
2022/10/22 02:05:44;;;;;;;4.72;2.35;;;;;;;12.14;100.00;95723.59;1033706;28;20260;-74
2022/10/22 02:06:17;;;;;;;7.75;2.53;;;;;;;12.10;100.00;95712.03;1030745;28;20045;-74
2022/10/22 02:06:49;;;;;;;5.60;2.70;;;;;;;12.13;100.00;95729.91;1032635;28;20034;-73
2022/10/22 02:07:20;;;;;;;5.63;2.55;;;;;;;12.17;100.00;95722.25;1034727;28;20109;-73
2022/10/22 02:07:54;;;;;;;5.60;2.95;;;;;;;12.17;100.00;95722.25;1030898;28;20025;-73
2022/10/22 02:08:27;;;;;;;7.35;3.30;;;;;;;12.16;100.00;95728.56;1030289;28;20057;-73
2022/10/22 02:08:58;;;;;;;7.57;3.10;;;;;;;11.96;100.00;95706.59;1022772;29;20388;-74
2022/10/22 02:09:28;;;;;;;7.28;3.22;;;;;;;12.13;100.00;95726.50;1026711;28;20265;-74
2022/10/22 02:09:59;;;;;;;6.20;3.08;;;;;;;12.14;100.00;95733.31;1026748;28;20127;-74
2022/10/22 02:10:30;;;;;;;7.10;4.10;;;;;;;12.15;100.00;95735.69;1030908;28;20018;-74
2022/10/22 02:11:00;;;;;;;9.30;3.75;;;;;;;12.14;100.00;95739.38;1030656;28;20037;-74
2022/10/22 02:11:31;;;;;;;8.07;4.30;;;;;;;12.06;100.00;95720.75;1027823;28;20294;-72
2022/10/22 02:12:02;;;;;;;11.32;4.38;;;;;;;12.12;100.00;95738.06;1030663;28;20022;-73
2022/10/22 02:12:33;;;;;;;9.27;4.55;;;;;;;12.10;100.00;95727.81;1025906;28;20130;-73
2022/10/22 02:13:04;;;;;;;6.68;3.97;;;;;;;12.08;100.00;95735.22;1030778;28;20157;-74
2022/10/22 02:13:37;;;;;;;6.78;4.35;;;;;;;12.07;100.00;95738.09;1022761;29;20459;-74
2022/10/22 02:14:11;;;;;;;6.30;4.38;;;;;;;12.09;100.00;95730.72;1026780;28;20026;-73
2022/10/22 02:14:42;;;;;;;8.23;4.15;;;;;;;12.03;100.00;95735.22;1022708;29;20015;-72
2022/10/22 02:15:12;;;;;;;10.15;4.53;;;;;;;12.01;100.00;95724.97;1030550;28;20046;-73
2022/10/22 02:15:43;;;;;;;7.45;4.45;;;;;;;12.00;100.00;95730.50;1034728;28;20777;-73
2022/10/22 02:16:20;;;;;;;7.50;4.22;;;;;;;12.01;100.00;95735.50;1026823;28;20022;-72
2022/10/22 02:16:51;;;;;;;7.80;4.78;;;;;;;11.98;100.00;95730.78;1026671;28;20101;-73
2022/10/22 02:17:21;;;;;;;8.75;4.47;;;;;;;11.98;100.00;95728.16;1026689;28;20508;-72
2022/10/22 02:17:55;;;;;;;7.95;4.60;;;;;;;12.02;100.00;95731.03;1030602;28;20065;-73
2022/10/22 02:18:27;;;;;;;10.15;4.90;;;;;;;11.97;100.00;95731.03;1028846;28;20014;-74
2022/10/22 02:18:58;;;;;;;6.80;4.63;;;;;;;12.00;100.00;95733.13;1026646;28;20062;-73
2022/10/22 02:19:37;;;;;;;8.65;4.75;;;;;;;11.96;100.00;95738.16;1030235;28;20014;-73
2022/10/22 02:20:34;;;;;;;9.18;4.57;;;;;;;11.94;100.00;95740.28;1034430;28;20009;-73
2022/10/22 02:21:05;;;;;;;9.30;4.88;;;;;;;11.92;100.00;95737.13;1030455;28;20032;-73
2022/10/22 02:21:35;;;;;;;7.20;4.50;;;;;;;11.93;100.00;95741.31;1034689;28;20837;-74
2022/10/22 02:22:05;;;;;;;7.45;4.85;;;;;;;11.92;100.00;95734.50;1030677;28;20014;-73
2022/10/22 02:22:36;;;;;;;7.97;4.38;;;;;;;11.90;100.00;95739.22;1026148;28;20018;-73
2022/10/22 02:23:06;;;;;;;7.82;4.30;;;;;;;11.89;100.00;95742.91;1026700;28;20571;-72
2022/10/22 02:23:40;;;;;;;7.10;4.53;;;;;;;11.89;100.00;95745.53;1034587;28;20018;-72
2022/10/22 02:24:10;;;;;;;11.52;4.88;;;;;;;11.87;100.00;95739.78;1038275;28;20538;-74
2022/10/22 02:24:43;;;;;;;10.15;4.70;;;;;;;11.86;100.00;95740.81;1026636;28;20007;-73
2022/10/22 02:25:14;;;;;;;10.40;4.28;;;;;;;11.81;100.00;95735.56;1023180;28;20075;-73
2022/10/22 02:25:46;;;;;;;10.48;3.75;;;;;;;11.86;100.00;95737.41;1026804;28;20029;-72
2022/10/22 02:26:34;;;;;;;8.05;4.18;;;;;;;11.82;100.00;95746.88;1027645;28;20181;-69
2022/10/22 02:27:06;;;;;;;9.82;4.20;;;;;;;11.80;100.00;95741.88;1028433;28;20010;-74
2022/10/22 02:27:45;;;;;;;5.57;4.03;;;;;;;11.77;100.00;95745.06;1022064;28;20090;-73
2022/10/22 02:28:21;;;;;;;9.05;3.80;;;;;;;11.78;100.00;95747.41;1018065;29;20107;-74
2022/10/22 02:29:05;;;;;;;5.70;3.85;;;;;;;11.69;100.00;95727.19;1030035;28;20058;-74
2022/10/22 02:29:39;;;;;;;4.05;3.15;;;;;;;11.71;100.00;95743.50;1026269;28;20508;-74
2022/10/22 02:30:14;;;;;;;7.43;3.20;;;;;;;11.68;100.00;95744.81;1026121;28;20027;-74
2022/10/22 02:30:47;;;;;;;7.57;3.03;;;;;;;11.69;100.00;95742.97;1023856;28;20106;-74
2022/10/22 02:31:20;;;;;;;6.38;3.17;;;;;;;11.68;100.00;95747.44;1030168;28;20266;-73
2022/10/22 02:31:50;;;;;;;7.00;3.63;;;;;;;11.62;100.00;95729.34;1034389;28;20026;-74
2022/10/22 02:32:23;;;;;;;3.42;2.53;;;;;;;11.64;100.00;95729.88;1028547;28;21060;-74
2022/10/22 02:32:59;;;;;;;4.97;3.10;;;;;;;11.59;100.00;95724.63;1026061;28;20022;-73
2022/10/22 02:33:31;;;;;;;4.72;2.88;;;;;;;11.63;100.00;95733.53;1026021;28;20023;-74
2022/10/22 02:34:04;;;;;;;3.97;2.55;;;;;;;11.63;100.00;95734.31;1030883;28;20261;-74
2022/10/22 02:34:34;;;;;;;4.40;2.80;;;;;;;11.63;100.00;95739.56;1035422;28;20335;-72
2022/10/22 02:35:05;;;;;;;4.22;2.92;;;;;;;11.63;100.00;95736.16;1034446;28;20041;-74
2022/10/22 02:35:36;;;;;;;6.20;2.95;;;;;;;11.60;100.00;95731.44;1030921;28;20072;-75
2022/10/22 02:36:06;;;;;;;4.72;3.15;;;;;;;11.63;100.00;95733.53;1026716;28;20019;-74
2022/10/22 02:36:37;;;;;;;5.55;3.15;;;;;;;11.62;100.00;95738.00;1026142;28;20031;-73
2022/10/22 02:37:07;;;;;;;4.93;3.30;;;;;;;11.59;100.00;95735.13;1022421;29;20557;-73
2022/10/22 02:37:43;;;;;;;4.05;3.08;;;;;;;11.57;100.00;95735.41;1030251;28;20526;-73
2022/10/22 02:38:14;;;;;;;6.90;2.75;;;;;;;11.55;100.00;95732.25;1030290;28;20281;-73
2022/10/22 02:38:45;;;;;;;5.93;3.05;;;;;;;11.58;100.00;95734.34;1022147;29;20031;-73
2022/10/22 02:39:15;;;;;;;5.80;3.05;;;;;;;11.58;100.00;95739.59;1031885;28;20022;-72
2022/10/22 02:39:46;;;;;;;5.55;2.92;;;;;;;11.57;100.00;95741.44;1034485;28;20048;-72
2022/10/22 02:40:16;;;;;;;5.97;3.33;;;;;;;11.43;100.00;95716.78;1026352;28;20027;-72
2022/10/22 02:40:47;;;;;;;4.50;3.30;;;;;;;11.47;100.00;95724.94;1024700;28;20114;-74
2022/10/22 02:41:20;;;;;;;4.85;3.00;;;;;;;11.55;100.00;95737.50;1030257;28;20059;-73